createdAt,value
2023-03-02T00:03:19.738Z,67.13
2023-03-02T00:07:49.215Z,67.43
2023-03-02T00:11:54.883Z,66.47
2023-03-02T00:15:58.764Z,65.87
2023-03-02T00:24:27.659Z,69.63
2023-03-02T00:28:32.838Z,69.60
2023-03-02T00:32:37.641Z,67.40
2023-03-02T00:36:41.419Z,68.67
2023-03-02T00:40:49.290Z,67.53
2023-03-02T00:44:55.471Z,66.30
2023-03-02T00:48:59.086Z,69.03
2023-03-02T00:53:28.044Z,70.13
2023-03-02T00:58:24.320Z,72.00
2023-03-02T01:02:29.793Z,66.30
2023-03-02T01:07:28.613Z,66.67
2023-03-02T01:11:32.485Z,64.77
2023-03-02T01:15:41.964Z,66.33
2023-03-02T01:19:49.520Z,62.40
2023-03-02T01:23:53.272Z,63.77
2023-03-02T01:28:07.102Z,65.83
2023-03-02T01:32:11.011Z,63.37
2023-03-02T01:36:16.444Z,66.13
2023-03-02T01:40:23.425Z,61.77
2023-03-02T01:44:44.828Z,63.00
2023-03-02T01:48:51.665Z,59.57
2023-03-02T01:53:18.255Z,62.53
2023-03-02T01:57:26.355Z,61.27
2023-03-02T02:01:54.343Z,65.13
2023-03-02T02:06:25.404Z,64.93
2023-03-02T02:10:46.198Z,63.63
2023-03-02T02:14:51.233Z,64.57
2023-03-02T02:18:55.264Z,54.63
2023-03-02T02:23:28.735Z,60.27
2023-03-02T02:27:44.835Z,61.60
2023-03-02T02:36:21.436Z,57.00
2023-03-02T02:40:55.555Z,59.43
2023-03-02T02:45:24.359Z,57.40
2023-03-02T02:49:33.629Z,57.97
2023-03-02T02:53:46.442Z,56.73
2023-03-02T02:57:54.291Z,52.83
2023-03-02T03:02:27.850Z,61.50
2023-03-02T03:07:26.025Z,51.77
2023-03-02T03:11:32.445Z,52.23
2023-03-02T03:15:36.793Z,49.40
2023-03-02T03:19:45.454Z,46.23
2023-03-02T03:23:50.184Z,51.83
2023-03-02T03:27:56.609Z,46.87
2023-03-02T03:32:02.371Z,52.10
2023-03-02T03:36:12.138Z,45.63
2023-03-02T03:40:16.626Z,41.87
2023-03-02T03:44:23.481Z,45.03
2023-03-02T03:48:27.354Z,46.77
2023-03-02T03:52:32.664Z,48.53
2023-03-02T03:56:56.313Z,43.20
2023-03-02T04:01:01.934Z,44.27
2023-03-02T04:06:21.191Z,47.30
2023-03-02T04:10:27.039Z,43.73
2023-03-02T04:14:31.413Z,43.33
2023-03-02T04:18:35.202Z,46.90
2023-03-02T04:22:38.985Z,47.30
2023-03-02T04:27:13.210Z,44.53
2023-03-02T04:31:17.034Z,41.10
2023-03-02T04:35:21.640Z,50.97
2023-03-02T04:39:53.078Z,50.60
2023-03-02T04:43:58.254Z,44.27
2023-03-02T04:48:02.047Z,47.80
2023-03-02T04:52:31.063Z,51.57
2023-03-02T04:56:38.478Z,45.90
2023-03-02T05:00:43.700Z,45.17
2023-03-02T05:04:47.408Z,46.07
2023-03-02T05:08:51.204Z,45.83
2023-03-02T05:17:47.975Z,46.07
2023-03-02T05:21:51.701Z,47.83
2023-03-02T05:26:17.375Z,40.73
2023-03-02T05:30:22.061Z,41.33
2023-03-02T05:34:27.263Z,47.47
2023-03-02T05:38:31.879Z,50.33
2023-03-02T05:42:36.182Z,47.07
2023-03-02T05:46:40.584Z,49.07
2023-03-02T05:51:03.658Z,47.07
2023-03-02T05:55:08.172Z,45.80
2023-03-02T05:59:28.492Z,46.63
2023-03-02T06:03:32.332Z,44.20
2023-03-02T06:07:40.227Z,46.97
2023-03-02T06:11:44.060Z,45.47
2023-03-02T06:15:47.745Z,42.50
2023-03-02T06:25:52.896Z,43.40
2023-03-02T06:29:56.650Z,40.87
2023-03-02T06:34:00.594Z,42.27
2023-03-02T06:38:29.089Z,39.53
2023-03-02T06:42:34.228Z,35.63
2023-03-02T06:47:03.053Z,40.27
2023-03-02T06:51:08.123Z,41.27
2023-03-02T06:55:12.487Z,38.87
2023-03-02T06:59:19.002Z,43.87
2023-03-02T07:03:22.813Z,38.07
2023-03-02T07:07:28.784Z,40.00
2023-03-02T07:11:32.878Z,39.73
2023-03-02T07:15:40.530Z,39.27
2023-03-02T07:19:44.247Z,37.03
2023-03-02T07:23:48.170Z,40.47
2023-03-02T07:27:52.094Z,38.97
2023-03-02T07:31:57.494Z,40.47
2023-03-02T07:36:07.746Z,39.60
2023-03-02T07:40:14.225Z,38.73
2023-03-02T07:44:43.139Z,37.37
2023-03-02T07:48:49.556Z,37.83
2023-03-02T07:52:53.299Z,39.37
2023-03-02T07:57:29.963Z,39.53
2023-03-02T08:01:38.130Z,41.27
2023-03-02T08:06:17.901Z,37.57
2023-03-02T08:10:23.315Z,37.00
2023-03-02T08:14:44.414Z,35.63
2023-03-02T08:18:50.633Z,40.73
2023-03-02T08:23:02.247Z,40.47
2023-03-02T08:27:19.011Z,39.60
2023-03-02T08:37:39.455Z,36.73
2023-03-02T08:42:24.903Z,40.20
2023-03-02T11:05:41.968Z,25.77
2023-03-02T11:09:50.189Z,24.13
2023-03-02T11:14:16.478Z,27.50
2023-03-02T12:00:44.836Z,28.30
2023-03-02T12:05:37.052Z,25.80
2023-03-02T12:09:43.183Z,20.13
2023-03-02T12:14:01.579Z,22.90
2023-03-02T12:18:35.618Z,22.30
2023-03-02T12:22:58.934Z,21.70
2023-03-02T12:27:05.768Z,22.93
2023-03-02T12:31:14.216Z,23.00
2023-03-02T12:36:37.494Z,20.43
2023-03-02T12:40:57.925Z,22.03
2023-03-02T12:47:08.249Z,25.07
2023-03-02T12:51:30.168Z,23.00
2023-03-02T12:55:36.081Z,23.13
2023-03-02T12:59:57.687Z,23.17
2023-03-02T13:09:25.001Z,20.20
2023-03-02T13:19:07.709Z,22.87
2023-03-02T13:23:17.405Z,19.70
2023-03-02T13:27:26.030Z,12.90
2023-03-02T13:31:48.728Z,14.10
2023-03-02T13:35:52.832Z,13.57
2023-03-02T13:40:00.875Z,8.53
2023-03-02T13:44:21.745Z,10.10
2023-03-02T13:48:28.104Z,13.27
2023-03-02T13:52:35.838Z,16.03
2023-03-02T13:56:56.536Z,14.40
2023-03-02T14:01:05.811Z,15.33
2023-03-02T14:05:33.598Z,13.80
2023-03-02T14:09:37.724Z,15.83
2023-03-02T14:13:44.924Z,13.67
2023-03-02T14:17:50.802Z,17.17
2023-03-02T14:21:58.327Z,16.20
2023-03-02T14:26:35.710Z,18.60
2023-03-02T14:35:28.060Z,18.53
2023-03-02T14:43:59.088Z,22.27
2023-03-02T14:48:52.525Z,22.03
2023-03-02T14:52:57.766Z,20.83
2023-03-02T14:57:23.104Z,27.57
2023-03-02T15:01:29.006Z,24.07
2023-03-02T15:05:32.674Z,21.70
2023-03-02T15:09:36.591Z,21.30
2023-03-02T15:14:30.465Z,22.13
2023-03-02T15:18:37.449Z,24.80
2023-03-02T15:22:41.082Z,23.80
2023-03-02T15:26:45.337Z,23.43
2023-03-02T15:31:19.161Z,22.10
2023-03-02T15:35:24.357Z,26.37
2023-03-02T15:39:31.562Z,22.77
2023-03-02T15:43:35.545Z,26.63
2023-03-02T15:47:39.460Z,22.03
2023-03-02T15:51:45.684Z,30.33
2023-03-02T15:55:49.211Z,31.63
2023-03-02T15:59:54.215Z,25.87
2023-03-02T16:04:00.574Z,25.80
2023-03-02T16:08:31.257Z,25.00
2023-03-02T16:12:35.052Z,24.80
2023-03-02T16:16:38.841Z,26.10
2023-03-02T16:20:44.799Z,26.43
2023-03-02T16:24:50.820Z,28.13
2023-03-02T16:28:59.408Z,25.63
2023-03-02T16:33:05.175Z,25.83
2023-03-02T16:38:16.888Z,30.60
2023-03-02T16:42:22.203Z,25.90
2023-03-02T16:46:27.722Z,25.57
2023-03-02T16:51:07.689Z,27.50
2023-03-02T16:55:16.056Z,26.93
2023-03-02T16:59:27.664Z,29.57
2023-03-02T17:03:31.797Z,28.37
2023-03-02T17:07:43.117Z,31.20
2023-03-02T17:11:46.916Z,28.97
2023-03-02T17:15:52.091Z,31.70
2023-03-02T17:20:20.891Z,28.87
2023-03-02T17:24:32.902Z,41.13
2023-03-02T17:28:36.643Z,38.10
2023-03-02T17:32:42.430Z,38.17
2023-03-02T17:37:11.051Z,34.20
2023-03-02T17:41:16.897Z,33.23
2023-03-02T17:45:21.711Z,34.37
2023-03-02T17:49:26.996Z,32.70
2023-03-02T17:53:31.087Z,34.27
2023-03-02T17:57:34.775Z,28.40
2023-03-02T18:02:28.535Z,33.33
2023-03-02T18:06:33.914Z,32.27
2023-03-02T18:10:37.631Z,34.47
2023-03-02T18:15:07.484Z,33.77
2023-03-02T18:19:11.156Z,31.27
2023-03-02T18:23:16.450Z,31.53
2023-03-02T18:27:23.434Z,31.83
2023-03-02T18:31:28.578Z,30.83
2023-03-02T18:35:32.442Z,33.43
2023-03-02T18:39:50.428Z,34.77
2023-03-02T18:43:54.289Z,35.83
2023-03-02T18:47:58.782Z,31.10
2023-03-02T18:52:10.119Z,34.60
2023-03-02T18:56:15.896Z,30.40
2023-03-02T19:00:23.660Z,33.07
2023-03-02T19:04:33.269Z,29.63
2023-03-02T19:08:37.708Z,31.73
2023-03-02T19:12:43.496Z,28.43
2023-03-02T19:17:15.215Z,27.27
2023-03-02T19:21:21.247Z,28.47
2023-03-02T19:25:25.622Z,30.37
2023-03-02T19:29:31.197Z,28.37
2023-03-02T19:33:35.409Z,25.57
2023-03-02T19:37:39.389Z,25.77
2023-03-02T19:41:43.520Z,28.73
2023-03-02T19:45:51.356Z,28.17
2023-03-02T19:49:55.197Z,26.50
2023-03-02T19:54:08.661Z,26.93
2023-03-02T19:58:20.707Z,27.13
2023-03-02T20:02:56.933Z,30.37
2023-03-02T20:07:00.989Z,27.30
2023-03-02T20:11:06.431Z,33.27
2023-03-02T20:15:11.113Z,27.93
2023-03-02T20:19:22.586Z,24.47
2023-03-02T20:23:26.373Z,28.73
2023-03-02T20:27:38.678Z,28.53
2023-03-02T20:31:43.297Z,27.63
2023-03-02T20:35:49.066Z,30.47
2023-03-02T20:39:56.650Z,28.13
2023-03-02T20:44:00.554Z,30.13
2023-03-02T20:48:09.038Z,25.90
2023-03-02T20:52:14.735Z,25.33
2023-03-02T20:56:21.629Z,24.37
2023-03-02T21:00:29.725Z,25.90
2023-03-02T21:04:36.379Z,24.93
2023-03-02T21:08:50.361Z,26.97
2023-03-02T21:12:54.305Z,25.97
2023-03-02T21:17:05.417Z,25.80
2023-03-02T21:21:09.276Z,28.70
2023-03-02T21:25:14.829Z,25.07
2023-03-02T21:29:25.685Z,23.93
2023-03-02T21:33:29.812Z,29.17
2023-03-02T21:37:35.351Z,24.13
2023-03-02T21:41:40.661Z,24.57
2023-03-02T21:45:44.625Z,28.07
2023-03-02T21:49:52.945Z,27.77
2023-03-02T21:54:02.158Z,26.47
2023-03-02T21:58:07.760Z,26.60
2023-03-02T22:02:15.389Z,25.43
2023-03-02T22:06:21.012Z,25.20
2023-03-02T22:10:32.605Z,27.80
2023-03-02T22:14:39.801Z,27.10
2023-03-02T22:18:45.154Z,28.73
2023-03-02T22:22:54.773Z,24.50
2023-03-02T22:27:13.743Z,27.50
2023-03-02T22:31:31.974Z,27.93
2023-03-02T22:35:35.871Z,26.60
2023-03-02T22:39:42.046Z,28.03
2023-03-02T22:43:49.710Z,25.10
2023-03-02T22:47:55.627Z,30.40
2023-03-02T22:52:04.870Z,25.10
2023-03-02T22:56:28.573Z,28.07
2023-03-02T23:01:00.508Z,25.40
2023-03-02T23:05:28.019Z,25.17
2023-03-02T23:09:35.202Z,32.57
2023-03-02T23:13:41.852Z,32.33
2023-03-02T23:17:47.073Z,35.27
2023-03-02T23:22:23.528Z,37.30
2023-03-02T23:26:27.968Z,42.33
2023-03-02T23:30:31.686Z,38.53
2023-03-02T23:35:44.006Z,44.27
2023-03-02T23:39:49.462Z,50.07
2023-03-02T23:43:53.237Z,45.03
2023-03-02T23:48:22.697Z,49.33
2023-03-02T23:52:26.376Z,48.13
2023-03-02T23:56:31.839Z,56.17
